sensor_id;sensor_type;location;lat;lon;timestamp;P1;durP1;ratioP1;P2;durP2;ratioP2
83465;SDS011;73393;51.946;20.140;2024-01-10T00:00:37;136.83;;;60.93;;
83465;SDS011;73393;51.946;20.140;2024-01-10T00:03:03;136.50;;;59.23;;
83465;SDS011;73393;51.946;20.140;2024-01-10T00:05:29;142.87;;;60.93;;
83465;SDS011;73393;51.946;20.140;2024-01-10T00:07:55;139.17;;;64.73;;
83465;SDS011;73393;51.946;20.140;2024-01-10T00:10:21;143.83;;;61.87;;
83465;SDS011;73393;51.946;20.140;2024-01-10T00:12:47;138.20;;;61.57;;
83465;SDS011;73393;51.946;20.140;2024-01-10T00:15:12;146.43;;;61.60;;
83465;SDS011;73393;51.946;20.140;2024-01-10T00:17:39;133.10;;;60.27;;
83465;SDS011;73393;51.946;20.140;2024-01-10T00:20:06;123.00;;;57.60;;
83465;SDS011;73393;51.946;20.140;2024-01-10T00:22:33;126.03;;;53.67;;
83465;SDS011;73393;51.946;20.140;2024-01-10T00:24:58;100.10;;;44.67;;
83465;SDS011;73393;51.946;20.140;2024-01-10T00:27:24;117.87;;;48.57;;
83465;SDS011;73393;51.946;20.140;2024-01-10T00:29:49;108.27;;;50.20;;
83465;SDS011;73393;51.946;20.140;2024-01-10T00:32:16;115.27;;;50.00;;
83465;SDS011;73393;51.946;20.140;2024-01-10T00:34:42;120.13;;;51.93;;
83465;SDS011;73393;51.946;20.140;2024-01-10T00:37:08;122.17;;;52.33;;
83465;SDS011;73393;51.946;20.140;2024-01-10T00:39:33;106.53;;;49.90;;
83465;SDS011;73393;51.946;20.140;2024-01-10T00:41:59;116.67;;;49.47;;
83465;SDS011;73393;51.946;20.140;2024-01-10T00:44:25;125.23;;;54.17;;
83465;SDS011;73393;51.946;20.140;2024-01-10T00:46:50;116.50;;;52.60;;
83465;SDS011;73393;51.946;20.140;2024-01-10T00:49:16;114.63;;;49.50;;
83465;SDS011;73393;51.946;20.140;2024-01-10T00:51:41;111.53;;;46.60;;
83465;SDS011;73393;51.946;20.140;2024-01-10T00:54:07;124.13;;;51.70;;
83465;SDS011;73393;51.946;20.140;2024-01-10T00:56:32;119.47;;;51.50;;
83465;SDS011;73393;51.946;20.140;2024-01-10T00:58:58;122.23;;;51.87;;
83465;SDS011;73393;51.946;20.140;2024-01-10T01:01:24;131.23;;;55.20;;
83465;SDS011;73393;51.946;20.140;2024-01-10T01:03:49;127.57;;;53.90;;
83465;SDS011;73393;51.946;20.140;2024-01-10T01:06:15;122.93;;;54.60;;
83465;SDS011;73393;51.946;20.140;2024-01-10T01:08:41;115.47;;;48.80;;
83465;SDS011;73393;51.946;20.140;2024-01-10T01:11:06;109.77;;;53.47;;
83465;SDS011;73393;51.946;20.140;2024-01-10T01:13:32;119.20;;;53.03;;
83465;SDS011;73393;51.946;20.140;2024-01-10T01:15:58;114.43;;;46.53;;
83465;SDS011;73393;51.946;20.140;2024-01-10T01:18:24;110.20;;;44.13;;
83465;SDS011;73393;51.946;20.140;2024-01-10T01:20:50;91.17;;;44.60;;
83465;SDS011;73393;51.946;20.140;2024-01-10T01:23:16;103.13;;;45.07;;
83465;SDS011;73393;51.946;20.140;2024-01-10T01:25:41;105.07;;;48.67;;
83465;SDS011;73393;51.946;20.140;2024-01-10T01:28:07;97.53;;;44.57;;
83465;SDS011;73393;51.946;20.140;2024-01-10T01:30:33;108.40;;;47.10;;
83465;SDS011;73393;51.946;20.140;2024-01-10T01:32:59;119.00;;;48.73;;
83465;SDS011;73393;51.946;20.140;2024-01-10T01:35:24;118.07;;;50.97;;
83465;SDS011;73393;51.946;20.140;2024-01-10T01:37:50;109.50;;;47.90;;
83465;SDS011;73393;51.946;20.140;2024-01-10T01:40:17;94.63;;;41.77;;
83465;SDS011;73393;51.946;20.140;2024-01-10T01:42:47;99.03;;;41.73;;
83465;SDS011;73393;51.946;20.140;2024-01-10T01:45:13;107.60;;;46.67;;
83465;SDS011;73393;51.946;20.140;2024-01-10T01:47:38;91.93;;;42.30;;
83465;SDS011;73393;51.946;20.140;2024-01-10T01:50:05;101.07;;;44.53;;
83465;SDS011;73393;51.946;20.140;2024-01-10T01:52:32;98.73;;;39.13;;
83465;SDS011;73393;51.946;20.140;2024-01-10T01:54:59;100.30;;;42.27;;
83465;SDS011;73393;51.946;20.140;2024-01-10T01:57:25;98.20;;;40.03;;
83465;SDS011;73393;51.946;20.140;2024-01-10T01:59:51;111.17;;;43.20;;
83465;SDS011;73393;51.946;20.140;2024-01-10T02:02:17;109.73;;;43.77;;
83465;SDS011;73393;51.946;20.140;2024-01-10T02:04:43;102.80;;;46.63;;
83465;SDS011;73393;51.946;20.140;2024-01-10T02:07:11;98.37;;;43.40;;
83465;SDS011;73393;51.946;20.140;2024-01-10T02:09:37;98.17;;;43.47;;
83465;SDS011;73393;51.946;20.140;2024-01-10T02:12:03;97.77;;;43.53;;
83465;SDS011;73393;51.946;20.140;2024-01-10T02:14:29;114.03;;;47.57;;
83465;SDS011;73393;51.946;20.140;2024-01-10T02:16:55;110.80;;;46.13;;
83465;SDS011;73393;51.946;20.140;2024-01-10T02:19:22;103.33;;;43.93;;
83465;SDS011;73393;51.946;20.140;2024-01-10T02:21:48;112.87;;;46.43;;
83465;SDS011;73393;51.946;20.140;2024-01-10T02:24:14;105.37;;;47.27;;
83465;SDS011;73393;51.946;20.140;2024-01-10T02:26:40;113.00;;;48.53;;
83465;SDS011;73393;51.946;20.140;2024-01-10T02:29:05;101.10;;;45.90;;
83465;SDS011;73393;51.946;20.140;2024-01-10T02:31:31;108.97;;;44.20;;
83465;SDS011;73393;51.946;20.140;2024-01-10T02:33:57;101.57;;;45.83;;
83465;SDS011;73393;51.946;20.140;2024-01-10T02:36:22;103.43;;;42.90;;
83465;SDS011;73393;51.946;20.140;2024-01-10T02:38:48;91.77;;;39.30;;
83465;SDS011;73393;51.946;20.140;2024-01-10T02:41:15;90.80;;;38.27;;
83465;SDS011;73393;51.946;20.140;2024-01-10T02:43:40;79.77;;;36.90;;
83465;SDS011;73393;51.946;20.140;2024-01-10T02:46:06;84.13;;;37.37;;
83465;SDS011;73393;51.946;20.140;2024-01-10T02:48:31;87.13;;;38.77;;
83465;SDS011;73393;51.946;20.140;2024-01-10T02:50:57;76.23;;;37.50;;
83465;SDS011;73393;51.946;20.140;2024-01-10T02:53:22;73.57;;;35.07;;
83465;SDS011;73393;51.946;20.140;2024-01-10T02:55:48;75.80;;;36.20;;
83465;SDS011;73393;51.946;20.140;2024-01-10T02:58:14;75.53;;;33.97;;
83465;SDS011;73393;51.946;20.140;2024-01-10T03:00:40;68.63;;;30.73;;
83465;SDS011;73393;51.946;20.140;2024-01-10T03:03:05;71.60;;;30.73;;
83465;SDS011;73393;51.946;20.140;2024-01-10T03:05:31;66.83;;;29.87;;
83465;SDS011;73393;51.946;20.140;2024-01-10T03:07:56;59.80;;;29.07;;
83465;SDS011;73393;51.946;20.140;2024-01-10T03:10:22;65.57;;;28.23;;
83465;SDS011;73393;51.946;20.140;2024-01-10T03:12:47;61.50;;;27.77;;
83465;SDS011;73393;51.946;20.140;2024-01-10T03:15:13;58.73;;;26.43;;
83465;SDS011;73393;51.946;20.140;2024-01-10T03:17:39;66.10;;;28.07;;
83465;SDS011;73393;51.946;20.140;2024-01-10T03:20:04;55.53;;;25.70;;
83465;SDS011;73393;51.946;20.140;2024-01-10T03:22:31;54.87;;;25.07;;
83465;SDS011;73393;51.946;20.140;2024-01-10T03:24:57;53.63;;;25.83;;
83465;SDS011;73393;51.946;20.140;2024-01-10T03:27:22;55.93;;;26.30;;
83465;SDS011;73393;51.946;20.140;2024-01-10T03:29:48;62.53;;;27.87;;
83465;SDS011;73393;51.946;20.140;2024-01-10T03:32:14;58.33;;;26.03;;
83465;SDS011;73393;51.946;20.140;2024-01-10T03:34:41;64.23;;;27.57;;
83465;SDS011;73393;51.946;20.140;2024-01-10T03:37:07;76.40;;;33.87;;
83465;SDS011;73393;51.946;20.140;2024-01-10T03:39:33;67.33;;;30.70;;
83465;SDS011;73393;51.946;20.140;2024-01-10T03:41:59;146.23;;;63.87;;
83465;SDS011;73393;51.946;20.140;2024-01-10T03:44:26;419.67;;;167.00;;
83465;SDS011;73393;51.946;20.140;2024-01-10T03:46:52;536.70;;;226.90;;
83465;SDS011;73393;51.946;20.140;2024-01-10T03:49:17;427.57;;;172.17;;
83465;SDS011;73393;51.946;20.140;2024-01-10T03:51:43;330.27;;;125.63;;
83465;SDS011;73393;51.946;20.140;2024-01-10T03:54:08;267.80;;;92.90;;
83465;SDS011;73393;51.946;20.140;2024-01-10T03:56:34;283.73;;;106.13;;
83465;SDS011;73393;51.946;20.140;2024-01-10T03:59:00;269.43;;;97.40;;
83465;SDS011;73393;51.946;20.140;2024-01-10T04:01:26;203.70;;;79.90;;
83465;SDS011;73393;51.946;20.140;2024-01-10T04:03:52;217.23;;;80.73;;
83465;SDS011;73393;51.946;20.140;2024-01-10T04:06:17;218.20;;;80.60;;
83465;SDS011;73393;51.946;20.140;2024-01-10T04:08:43;147.67;;;55.47;;
83465;SDS011;73393;51.946;20.140;2024-01-10T04:11:09;136.50;;;51.00;;
83465;SDS011;73393;51.946;20.140;2024-01-10T04:13:34;104.47;;;43.90;;
83465;SDS011;73393;51.946;20.140;2024-01-10T04:16:00;102.70;;;40.87;;
83465;SDS011;73393;51.946;20.140;2024-01-10T04:18:25;90.90;;;35.53;;
83465;SDS011;73393;51.946;20.140;2024-01-10T04:20:51;63.50;;;31.00;;
83465;SDS011;73393;51.946;20.140;2024-01-10T04:23:16;70.27;;;30.63;;
83465;SDS011;73393;51.946;20.140;2024-01-10T04:25:42;58.20;;;30.47;;
83465;SDS011;73393;51.946;20.140;2024-01-10T04:28:08;89.17;;;34.50;;
83465;SDS011;73393;51.946;20.140;2024-01-10T04:30:33;98.30;;;40.17;;
83465;SDS011;73393;51.946;20.140;2024-01-10T04:32:59;84.03;;;35.27;;
83465;SDS011;73393;51.946;20.140;2024-01-10T04:35:25;87.90;;;34.77;;
83465;SDS011;73393;51.946;20.140;2024-01-10T04:37:50;92.03;;;36.37;;
83465;SDS011;73393;51.946;20.140;2024-01-10T04:40:16;81.20;;;35.60;;
83465;SDS011;73393;51.946;20.140;2024-01-10T04:42:42;85.20;;;36.70;;
83465;SDS011;73393;51.946;20.140;2024-01-10T04:45:08;75.70;;;33.27;;
83465;SDS011;73393;51.946;20.140;2024-01-10T04:47:33;81.67;;;31.87;;
83465;SDS011;73393;51.946;20.140;2024-01-10T04:49:59;76.53;;;32.97;;
83465;SDS011;73393;51.946;20.140;2024-01-10T04:52:25;60.47;;;28.57;;
83465;SDS011;73393;51.946;20.140;2024-01-10T04:54:50;62.57;;;27.60;;
83465;SDS011;73393;51.946;20.140;2024-01-10T04:57:16;68.10;;;27.03;;
83465;SDS011;73393;51.946;20.140;2024-01-10T04:59:41;57.40;;;25.23;;
83465;SDS011;73393;51.946;20.140;2024-01-10T05:02:07;69.70;;;29.10;;
83465;SDS011;73393;51.946;20.140;2024-01-10T05:04:33;75.63;;;30.57;;
83465;SDS011;73393;51.946;20.140;2024-01-10T05:06:58;64.63;;;27.33;;
83465;SDS011;73393;51.946;20.140;2024-01-10T05:09:24;72.73;;;31.03;;
83465;SDS011;73393;51.946;20.140;2024-01-10T05:11:49;81.33;;;31.33;;
83465;SDS011;73393;51.946;20.140;2024-01-10T05:14:16;71.57;;;29.10;;
83465;SDS011;73393;51.946;20.140;2024-01-10T05:16:44;61.77;;;29.93;;
83465;SDS011;73393;51.946;20.140;2024-01-10T05:19:10;69.83;;;27.80;;
83465;SDS011;73393;51.946;20.140;2024-01-10T05:21:36;56.43;;;27.07;;
83465;SDS011;73393;51.946;20.140;2024-01-10T05:24:01;61.33;;;27.40;;
83465;SDS011;73393;51.946;20.140;2024-01-10T05:26:28;75.33;;;31.13;;
83465;SDS011;73393;51.946;20.140;2024-01-10T05:28:54;63.17;;;29.30;;
83465;SDS011;73393;51.946;20.140;2024-01-10T05:31:19;63.63;;;26.00;;
83465;SDS011;73393;51.946;20.140;2024-01-10T05:33:45;51.87;;;23.30;;
83465;SDS011;73393;51.946;20.140;2024-01-10T05:36:10;45.07;;;22.80;;
83465;SDS011;73393;51.946;20.140;2024-01-10T05:38:36;55.10;;;24.70;;
83465;SDS011;73393;51.946;20.140;2024-01-10T05:41:02;108.70;;;52.63;;
83465;SDS011;73393;51.946;20.140;2024-01-10T05:43:28;125.53;;;62.87;;
83465;SDS011;73393;51.946;20.140;2024-01-10T05:45:53;116.73;;;60.80;;
83465;SDS011;73393;51.946;20.140;2024-01-10T05:48:19;110.63;;;57.53;;
83465;SDS011;73393;51.946;20.140;2024-01-10T05:50:44;115.93;;;55.67;;
83465;SDS011;73393;51.946;20.140;2024-01-10T05:53:10;89.40;;;43.83;;
83465;SDS011;73393;51.946;20.140;2024-01-10T05:55:37;85.00;;;39.57;;
83465;SDS011;73393;51.946;20.140;2024-01-10T05:58:03;82.20;;;35.33;;
83465;SDS011;73393;51.946;20.140;2024-01-10T06:00:29;82.00;;;36.73;;
83465;SDS011;73393;51.946;20.140;2024-01-10T06:02:55;93.23;;;42.77;;
83465;SDS011;73393;51.946;20.140;2024-01-10T06:05:20;109.17;;;44.07;;
83465;SDS011;73393;51.946;20.140;2024-01-10T06:07:46;104.23;;;43.73;;
83465;SDS011;73393;51.946;20.140;2024-01-10T06:10:12;96.03;;;45.03;;
83465;SDS011;73393;51.946;20.140;2024-01-10T06:12:38;91.80;;;42.60;;
83465;SDS011;73393;51.946;20.140;2024-01-10T06:15:03;110.70;;;46.00;;
83465;SDS011;73393;51.946;20.140;2024-01-10T06:17:29;78.20;;;37.20;;
83465;SDS011;73393;51.946;20.140;2024-01-10T06:19:56;87.03;;;37.13;;
83465;SDS011;73393;51.946;20.140;2024-01-10T06:22:24;89.23;;;36.87;;
83465;SDS011;73393;51.946;20.140;2024-01-10T06:24:50;115.70;;;48.93;;
83465;SDS011;73393;51.946;20.140;2024-01-10T06:27:16;116.83;;;50.70;;
83465;SDS011;73393;51.946;20.140;2024-01-10T06:29:43;92.77;;;39.10;;
83465;SDS011;73393;51.946;20.140;2024-01-10T06:32:10;81.70;;;37.43;;
83465;SDS011;73393;51.946;20.140;2024-01-10T06:34:36;68.70;;;31.87;;
83465;SDS011;73393;51.946;20.140;2024-01-10T06:37:01;83.37;;;38.07;;
83465;SDS011;73393;51.946;20.140;2024-01-10T06:39:27;104.37;;;42.40;;
83465;SDS011;73393;51.946;20.140;2024-01-10T06:41:52;125.00;;;49.03;;
83465;SDS011;73393;51.946;20.140;2024-01-10T06:44:18;98.10;;;42.10;;
83465;SDS011;73393;51.946;20.140;2024-01-10T06:46:44;114.50;;;43.47;;
83465;SDS011;73393;51.946;20.140;2024-01-10T06:49:10;93.27;;;39.47;;
83465;SDS011;73393;51.946;20.140;2024-01-10T06:51:36;89.17;;;35.40;;
83465;SDS011;73393;51.946;20.140;2024-01-10T06:54:02;76.03;;;32.90;;
83465;SDS011;73393;51.946;20.140;2024-01-10T06:56:32;71.93;;;33.47;;
83465;SDS011;73393;51.946;20.140;2024-01-10T06:58:58;76.90;;;34.70;;
83465;SDS011;73393;51.946;20.140;2024-01-10T07:01:24;80.80;;;35.93;;
83465;SDS011;73393;51.946;20.140;2024-01-10T07:03:51;81.87;;;38.50;;
83465;SDS011;73393;51.946;20.140;2024-01-10T07:06:17;77.27;;;37.37;;
83465;SDS011;73393;51.946;20.140;2024-01-10T07:08:43;70.80;;;35.50;;
83465;SDS011;73393;51.946;20.140;2024-01-10T07:11:12;70.10;;;34.23;;
83465;SDS011;73393;51.946;20.140;2024-01-10T07:13:38;74.70;;;34.87;;
83465;SDS011;73393;51.946;20.140;2024-01-10T07:16:04;92.57;;;40.97;;
83465;SDS011;73393;51.946;20.140;2024-01-10T07:18:30;92.33;;;43.67;;
83465;SDS011;73393;51.946;20.140;2024-01-10T07:20:56;123.50;;;53.17;;
83465;SDS011;73393;51.946;20.140;2024-01-10T07:23:21;138.47;;;58.67;;
83465;SDS011;73393;51.946;20.140;2024-01-10T07:25:50;123.07;;;55.37;;
83465;SDS011;73393;51.946;20.140;2024-01-10T07:28:17;114.97;;;52.80;;
83465;SDS011;73393;51.946;20.140;2024-01-10T07:30:44;109.60;;;46.20;;
83465;SDS011;73393;51.946;20.140;2024-01-10T07:33:10;83.37;;;42.00;;
83465;SDS011;73393;51.946;20.140;2024-01-10T07:35:36;91.37;;;45.17;;
83465;SDS011;73393;51.946;20.140;2024-01-10T07:38:03;102.57;;;46.63;;
83465;SDS011;73393;51.946;20.140;2024-01-10T07:40:33;102.78;;;47.85;;
83465;SDS011;73393;51.946;20.140;2024-01-10T07:42:59;99.40;;;47.40;;
83465;SDS011;73393;51.946;20.140;2024-01-10T07:45:25;128.67;;;60.50;;
83465;SDS011;73393;51.946;20.140;2024-01-10T07:47:51;121.17;;;58.93;;
83465;SDS011;73393;51.946;20.140;2024-01-10T07:50:17;125.40;;;56.43;;
83465;SDS011;73393;51.946;20.140;2024-01-10T07:52:44;116.80;;;58.47;;
83465;SDS011;73393;51.946;20.140;2024-01-10T07:55:11;117.37;;;57.67;;
83465;SDS011;73393;51.946;20.140;2024-01-10T07:57:37;126.67;;;56.67;;
83465;SDS011;73393;51.946;20.140;2024-01-10T08:00:06;125.60;;;57.37;;
83465;SDS011;73393;51.946;20.140;2024-01-10T08:02:35;126.20;;;56.77;;
83465;SDS011;73393;51.946;20.140;2024-01-10T08:05:02;120.73;;;56.53;;
83465;SDS011;73393;51.946;20.140;2024-01-10T08:07:31;139.63;;;62.67;;
83465;SDS011;73393;51.946;20.140;2024-01-10T08:09:59;139.93;;;64.27;;
83465;SDS011;73393;51.946;20.140;2024-01-10T08:12:25;179.43;;;76.60;;
83465;SDS011;73393;51.946;20.140;2024-01-10T08:14:51;177.53;;;71.87;;
83465;SDS011;73393;51.946;20.140;2024-01-10T08:17:16;147.33;;;62.80;;
83465;SDS011;73393;51.946;20.140;2024-01-10T08:19:42;170.60;;;72.30;;
83465;SDS011;73393;51.946;20.140;2024-01-10T08:22:08;124.20;;;46.33;;
83465;SDS011;73393;51.946;20.140;2024-01-10T08:24:33;70.70;;;27.67;;
83465;SDS011;73393;51.946;20.140;2024-01-10T08:26:59;69.97;;;30.77;;
83465;SDS011;73393;51.946;20.140;2024-01-10T08:29:24;88.17;;;45.23;;
83465;SDS011;73393;51.946;20.140;2024-01-10T08:31:55;60.35;;;31.95;;
83465;SDS011;73393;51.946;20.140;2024-01-10T08:34:21;61.60;;;26.43;;
83465;SDS011;73393;51.946;20.140;2024-01-10T08:36:47;34.27;;;15.00;;
83465;SDS011;73393;51.946;20.140;2024-01-10T08:39:15;34.03;;;15.60;;
83465;SDS011;73393;51.946;20.140;2024-01-10T08:41:41;33.13;;;15.40;;
83465;SDS011;73393;51.946;20.140;2024-01-10T08:44:09;38.90;;;19.27;;
83465;SDS011;73393;51.946;20.140;2024-01-10T08:46:35;43.77;;;21.60;;
83465;SDS011;73393;51.946;20.140;2024-01-10T08:49:01;52.87;;;26.07;;
83465;SDS011;73393;51.946;20.140;2024-01-10T08:51:26;40.13;;;17.50;;
83465;SDS011;73393;51.946;20.140;2024-01-10T08:53:52;38.93;;;18.10;;
83465;SDS011;73393;51.946;20.140;2024-01-10T08:56:18;29.70;;;12.37;;
83465;SDS011;73393;51.946;20.140;2024-01-10T08:58:44;38.87;;;18.17;;
83465;SDS011;73393;51.946;20.140;2024-01-10T09:01:10;27.97;;;11.37;;
83465;SDS011;73393;51.946;20.140;2024-01-10T09:03:36;38.00;;;18.03;;
83465;SDS011;73393;51.946;20.140;2024-01-10T09:06:02;32.17;;;13.10;;
83465;SDS011;73393;51.946;20.140;2024-01-10T09:08:29;37.80;;;14.50;;
83465;SDS011;73393;51.946;20.140;2024-01-10T09:10:55;37.50;;;16.73;;
83465;SDS011;73393;51.946;20.140;2024-01-10T09:13:20;33.67;;;13.80;;
83465;SDS011;73393;51.946;20.140;2024-01-10T09:15:46;20.20;;;11.00;;
83465;SDS011;73393;51.946;20.140;2024-01-10T09:18:11;43.20;;;21.73;;
83465;SDS011;73393;51.946;20.140;2024-01-10T09:20:37;38.80;;;20.60;;
83465;SDS011;73393;51.946;20.140;2024-01-10T09:23:03;28.50;;;14.27;;
83465;SDS011;73393;51.946;20.140;2024-01-10T09:25:29;25.30;;;12.37;;
83465;SDS011;73393;51.946;20.140;2024-01-10T09:27:54;19.30;;;11.33;;
83465;SDS011;73393;51.946;20.140;2024-01-10T09:30:20;23.57;;;11.33;;
83465;SDS011;73393;51.946;20.140;2024-01-10T09:32:46;24.87;;;11.80;;
83465;SDS011;73393;51.946;20.140;2024-01-10T09:35:12;24.87;;;10.77;;
83465;SDS011;73393;51.946;20.140;2024-01-10T09:37:38;20.13;;;10.30;;
83465;SDS011;73393;51.946;20.140;2024-01-10T09:40:04;21.13;;;10.10;;
83465;SDS011;73393;51.946;20.140;2024-01-10T09:42:35;27.33;;;10.43;;
83465;SDS011;73393;51.946;20.140;2024-01-10T09:45:03;26.33;;;13.60;;
83465;SDS011;73393;51.946;20.140;2024-01-10T09:47:30;26.20;;;12.23;;
83465;SDS011;73393;51.946;20.140;2024-01-10T09:49:57;20.87;;;10.27;;
83465;SDS011;73393;51.946;20.140;2024-01-10T09:52:24;42.23;;;19.20;;
83465;SDS011;73393;51.946;20.140;2024-01-10T09:54:54;38.27;;;15.93;;
83465;SDS011;73393;51.946;20.140;2024-01-10T09:57:22;28.85;;;12.00;;
83465;SDS011;73393;51.946;20.140;2024-01-10T09:59:51;26.50;;;11.50;;
83465;SDS011;73393;51.946;20.140;2024-01-10T10:02:17;30.87;;;14.47;;
83465;SDS011;73393;51.946;20.140;2024-01-10T10:07:28;25.93;;;12.53;;
83465;SDS011;73393;51.946;20.140;2024-01-10T10:09:54;20.97;;;9.53;;
83465;SDS011;73393;51.946;20.140;2024-01-10T10:12:21;25.17;;;12.40;;
83465;SDS011;73393;51.946;20.140;2024-01-10T10:14:49;28.43;;;12.60;;
83465;SDS011;73393;51.946;20.140;2024-01-10T10:17:15;21.80;;;10.27;;
83465;SDS011;73393;51.946;20.140;2024-01-10T10:19:41;29.87;;;13.60;;
83465;SDS011;73393;51.946;20.140;2024-01-10T10:22:08;25.87;;;10.73;;
83465;SDS011;73393;51.946;20.140;2024-01-10T10:24:34;19.53;;;8.80;;
83465;SDS011;73393;51.946;20.140;2024-01-10T10:27:00;25.13;;;12.73;;
83465;SDS011;73393;51.946;20.140;2024-01-10T10:29:25;19.30;;;8.47;;
83465;SDS011;73393;51.946;20.140;2024-01-10T10:31:51;17.63;;;9.40;;
83465;SDS011;73393;51.946;20.140;2024-01-10T10:34:30;28.87;;;11.47;;
83465;SDS011;73393;51.946;20.140;2024-01-10T10:36:56;25.30;;;11.23;;
83465;SDS011;73393;51.946;20.140;2024-01-10T10:39:21;17.53;;;7.63;;
83465;SDS011;73393;51.946;20.140;2024-01-10T10:41:47;33.63;;;13.07;;
83465;SDS011;73393;51.946;20.140;2024-01-10T10:44:15;20.17;;;8.33;;
83465;SDS011;73393;51.946;20.140;2024-01-10T10:46:47;13.87;;;6.10;;
83465;SDS011;73393;51.946;20.140;2024-01-10T10:49:17;15.18;;;6.43;;
83465;SDS011;73393;51.946;20.140;2024-01-10T10:51:47;26.73;;;10.40;;
83465;SDS011;73393;51.946;20.140;2024-01-10T10:54:13;27.43;;;12.33;;
83465;SDS011;73393;51.946;20.140;2024-01-10T10:56:41;21.07;;;9.93;;
83465;SDS011;73393;51.946;20.140;2024-01-10T10:59:08;18.67;;;8.83;;
83465;SDS011;73393;51.946;20.140;2024-01-10T11:01:35;16.93;;;7.53;;
83465;SDS011;73393;51.946;20.140;2024-01-10T11:04:01;14.40;;;6.37;;
83465;SDS011;73393;51.946;20.140;2024-01-10T11:06:28;32.50;;;12.23;;
83465;SDS011;73393;51.946;20.140;2024-01-10T11:09:00;17.30;;;8.60;;
83465;SDS011;73393;51.946;20.140;2024-01-10T11:17:10;28.50;;;12.47;;
83465;SDS011;73393;51.946;20.140;2024-01-10T11:20:05;17.73;;;6.63;;
83465;SDS011;73393;51.946;20.140;2024-01-10T11:25:52;30.03;;;12.93;;
83465;SDS011;73393;51.946;20.140;2024-01-10T11:28:18;45.27;;;18.13;;
83465;SDS011;73393;51.946;20.140;2024-01-10T11:30:48;25.67;;;13.87;;
83465;SDS011;73393;51.946;20.140;2024-01-10T11:33:24;27.90;;;14.10;;
83465;SDS011;73393;51.946;20.140;2024-01-10T11:36:14;27.30;;;13.53;;
83465;SDS011;73393;51.946;20.140;2024-01-10T11:38:42;21.40;;;13.03;;
83465;SDS011;73393;51.946;20.140;2024-01-10T11:41:13;26.73;;;13.53;;
83465;SDS011;73393;51.946;20.140;2024-01-10T11:43:45;26.40;;;12.17;;
83465;SDS011;73393;51.946;20.140;2024-01-10T11:46:10;26.63;;;13.80;;
83465;SDS011;73393;51.946;20.140;2024-01-10T11:48:37;26.73;;;12.33;;
83465;SDS011;73393;51.946;20.140;2024-01-10T11:51:04;24.90;;;13.00;;
83465;SDS011;73393;51.946;20.140;2024-01-10T11:53:48;26.80;;;13.73;;
83465;SDS011;73393;51.946;20.140;2024-01-10T11:56:15;20.50;;;9.33;;
83465;SDS011;73393;51.946;20.140;2024-01-10T11:59:01;35.23;;;15.80;;
83465;SDS011;73393;51.946;20.140;2024-01-10T12:01:29;19.93;;;8.57;;
83465;SDS011;73393;51.946;20.140;2024-01-10T12:03:54;20.87;;;9.47;;
83465;SDS011;73393;51.946;20.140;2024-01-10T12:06:22;22.33;;;8.57;;
83465;SDS011;73393;51.946;20.140;2024-01-10T12:08:50;23.60;;;10.77;;
83465;SDS011;73393;51.946;20.140;2024-01-10T12:11:16;20.27;;;10.70;;
83465;SDS011;73393;51.946;20.140;2024-01-10T12:13:42;22.87;;;12.13;;
83465;SDS011;73393;51.946;20.140;2024-01-10T12:16:08;32.00;;;15.20;;
83465;SDS011;73393;51.946;20.140;2024-01-10T12:18:36;26.07;;;12.40;;
83465;SDS011;73393;51.946;20.140;2024-01-10T12:21:02;18.63;;;10.27;;
83465;SDS011;73393;51.946;20.140;2024-01-10T12:23:28;20.80;;;9.50;;
83465;SDS011;73393;51.946;20.140;2024-01-10T12:25:56;25.90;;;13.37;;
83465;SDS011;73393;51.946;20.140;2024-01-10T12:28:30;19.17;;;10.03;;
83465;SDS011;73393;51.946;20.140;2024-01-10T12:30:55;19.90;;;9.37;;
83465;SDS011;73393;51.946;20.140;2024-01-10T12:33:22;23.23;;;11.27;;
83465;SDS011;73393;51.946;20.140;2024-01-10T12:38:30;27.10;;;14.20;;
83465;SDS011;73393;51.946;20.140;2024-01-10T12:40:57;28.10;;;14.03;;
83465;SDS011;73393;51.946;20.140;2024-01-10T12:43:25;39.10;;;17.70;;
83465;SDS011;73393;51.946;20.140;2024-01-10T12:46:05;28.10;;;16.30;;
83465;SDS011;73393;51.946;20.140;2024-01-10T12:48:40;38.07;;;16.13;;
83465;SDS011;73393;51.946;20.140;2024-01-10T12:51:07;33.07;;;17.70;;
83465;SDS011;73393;51.946;20.140;2024-01-10T12:53:43;24.93;;;13.57;;
83465;SDS011;73393;51.946;20.140;2024-01-10T12:56:09;23.73;;;10.70;;
83465;SDS011;73393;51.946;20.140;2024-01-10T12:58:39;29.27;;;15.60;;
83465;SDS011;73393;51.946;20.140;2024-01-10T13:01:07;28.77;;;14.47;;
83465;SDS011;73393;51.946;20.140;2024-01-10T13:03:33;25.27;;;15.20;;
83465;SDS011;73393;51.946;20.140;2024-01-10T13:05:59;31.20;;;14.97;;
83465;SDS011;73393;51.946;20.140;2024-01-10T13:08:25;31.13;;;13.80;;
83465;SDS011;73393;51.946;20.140;2024-01-10T13:10:51;40.77;;;16.60;;
83465;SDS011;73393;51.946;20.140;2024-01-10T13:13:16;33.93;;;15.67;;
83465;SDS011;73393;51.946;20.140;2024-01-10T13:15:44;26.60;;;13.13;;
83465;SDS011;73393;51.946;20.140;2024-01-10T13:18:12;32.97;;;15.23;;
83465;SDS011;73393;51.946;20.140;2024-01-10T13:20:39;39.87;;;15.63;;
83465;SDS011;73393;51.946;20.140;2024-01-10T13:23:05;20.63;;;10.03;;
83465;SDS011;73393;51.946;20.140;2024-01-10T13:25:31;27.50;;;13.73;;
83465;SDS011;73393;51.946;20.140;2024-01-10T13:27:56;27.67;;;14.40;;
83465;SDS011;73393;51.946;20.140;2024-01-10T13:30:22;35.37;;;15.37;;
83465;SDS011;73393;51.946;20.140;2024-01-10T13:32:48;33.40;;;14.73;;
83465;SDS011;73393;51.946;20.140;2024-01-10T13:35:14;51.07;;;21.87;;
83465;SDS011;73393;51.946;20.140;2024-01-10T13:37:41;58.37;;;22.90;;
83465;SDS011;73393;51.946;20.140;2024-01-10T13:40:10;49.57;;;21.33;;
83465;SDS011;73393;51.946;20.140;2024-01-10T13:42:39;47.40;;;22.67;;
83465;SDS011;73393;51.946;20.140;2024-01-10T13:45:05;41.70;;;19.30;;
83465;SDS011;73393;51.946;20.140;2024-01-10T13:47:32;69.10;;;27.70;;
83465;SDS011;73393;51.946;20.140;2024-01-10T13:49:59;40.60;;;18.43;;
83465;SDS011;73393;51.946;20.140;2024-01-10T13:52:25;45.63;;;22.43;;
83465;SDS011;73393;51.946;20.140;2024-01-10T13:54:50;39.50;;;19.07;;
83465;SDS011;73393;51.946;20.140;2024-01-10T13:57:16;50.63;;;22.00;;
83465;SDS011;73393;51.946;20.140;2024-01-10T13:59:42;57.47;;;25.43;;
83465;SDS011;73393;51.946;20.140;2024-01-10T14:02:08;59.33;;;25.60;;
83465;SDS011;73393;51.946;20.140;2024-01-10T14:04:35;79.97;;;37.07;;
83465;SDS011;73393;51.946;20.140;2024-01-10T14:07:01;101.53;;;51.33;;
83465;SDS011;73393;51.946;20.140;2024-01-10T14:09:28;56.80;;;27.97;;
83465;SDS011;73393;51.946;20.140;2024-01-10T14:11:55;71.67;;;33.73;;
83465;SDS011;73393;51.946;20.140;2024-01-10T14:14:20;76.07;;;35.30;;
83465;SDS011;73393;51.946;20.140;2024-01-10T14:16:46;68.37;;;34.53;;